createdAt,value
2022-12-22T00:02:18.301Z,97762.75
2022-12-22T00:05:03.420Z,97758.94
2022-12-22T00:07:48.774Z,97752.97
2022-12-22T00:10:34.030Z,97748.34
2022-12-22T00:13:19.273Z,97734.47
2022-12-22T00:16:04.448Z,97741.38
2022-12-22T00:18:49.661Z,97743.34
2022-12-22T00:21:34.901Z,97736.56
2022-12-22T00:24:20.077Z,97745.75
2022-12-22T00:27:05.247Z,97750.69
2022-12-22T00:29:53.983Z,97738.50
2022-12-22T00:32:39.097Z,97732.38
2022-12-22T00:35:24.415Z,97733.19
2022-12-22T00:38:09.677Z,97733.19
2022-12-22T00:40:54.979Z,97749.25
2022-12-22T00:43:40.237Z,97735.72
2022-12-22T00:46:27.536Z,97734.34
2022-12-22T00:49:12.869Z,97741.03
2022-12-22T00:51:58.112Z,97733.09
2022-12-22T00:54:43.340Z,97735.75
2022-12-22T00:57:32.598Z,97724.84
2022-12-22T01:00:17.860Z,97720.03
2022-12-22T01:03:03.245Z,97730.31
2022-12-22T01:05:48.477Z,97726.19
2022-12-22T01:08:33.979Z,97715.34
2022-12-22T01:11:19.012Z,97712.72
2022-12-22T01:14:04.278Z,97709.41
2022-12-22T01:16:49.503Z,97711.91
2022-12-22T01:19:34.922Z,97714.19
2022-12-22T01:22:20.851Z,97721.63
2022-12-22T01:25:06.173Z,97715.88
2022-12-22T01:27:51.323Z,97720.78
2022-12-22T01:30:36.572Z,97717.97
2022-12-22T01:33:21.935Z,97720.78
2022-12-22T01:36:07.467Z,97720.00
2022-12-22T01:38:52.697Z,97721.63
2022-12-22T01:41:38.375Z,97709.41
2022-12-22T01:44:30.340Z,97707.44
2022-12-22T01:47:35.531Z,97696.69
2022-12-22T01:50:20.764Z,97691.06
2022-12-22T01:53:06.274Z,97677.19
2022-12-22T01:55:51.673Z,97676.72
2022-12-22T01:58:40.439Z,97684.66
2022-12-22T02:01:25.817Z,97674.75
2022-12-22T02:04:11.115Z,97676.25
2022-12-22T02:07:00.246Z,97674.25
2022-12-22T02:09:51.731Z,97664.50
2022-12-22T02:12:40.129Z,97661.69
2022-12-22T02:15:45.582Z,97661.34
2022-12-22T02:18:32.626Z,97656.69
2022-12-22T02:21:22.069Z,97655.41
2022-12-22T02:24:24.683Z,97643.69
2022-12-22T02:27:10.385Z,97660.38
2022-12-22T02:29:58.393Z,97647.81
2022-12-22T02:32:43.606Z,97652.78
2022-12-22T02:35:32.755Z,97647.81
2022-12-22T02:38:20.701Z,97662.00
2022-12-22T02:41:16.582Z,97650.28
2022-12-22T02:44:21.099Z,97663.69
2022-12-22T02:47:09.528Z,97658.53
2022-12-22T02:49:58.375Z,97647.28
2022-12-22T02:52:46.073Z,97650.22
2022-12-22T02:55:31.425Z,97647.47
2022-12-22T02:58:17.740Z,97633.94
2022-12-22T03:01:03.106Z,97625.25
2022-12-22T03:03:48.642Z,97620.09
2022-12-22T03:06:33.879Z,97630.00
2022-12-22T03:09:19.231Z,97627.91
2022-12-22T03:12:04.506Z,97634.53
2022-12-22T03:14:49.536Z,97628.53
2022-12-22T03:17:34.827Z,97634.03
2022-12-22T03:20:20.075Z,97624.28
2022-12-22T03:23:05.510Z,97617.31
2022-12-22T03:25:50.698Z,97621.56
2022-12-22T03:28:17.256Z,97601.78
2022-12-22T03:30:43.781Z,97590.88
2022-12-22T03:33:10.303Z,97594.34
2022-12-22T03:35:36.832Z,97591.69
2022-12-22T03:38:03.779Z,97579.34
2022-12-22T03:40:31.160Z,97566.16
2022-12-22T03:43:16.243Z,97565.63
2022-12-22T03:46:01.598Z,97564.13
2022-12-22T03:48:28.135Z,97553.00
2022-12-22T03:50:54.664Z,97566.06
2022-12-22T03:53:21.228Z,97555.19
2022-12-22T03:55:47.745Z,97563.94
2022-12-22T03:58:14.270Z,97565.41
2022-12-22T04:00:40.812Z,97560.25
2022-12-22T04:03:07.641Z,97571.84
2022-12-22T04:05:34.206Z,97571.00
2022-12-22T04:08:00.760Z,97562.69
2022-12-22T04:10:46.074Z,97557.72
2022-12-22T04:13:12.571Z,97565.78
2022-12-22T04:15:39.082Z,97564.31
2022-12-22T04:18:05.732Z,97554.50
2022-12-22T04:20:32.375Z,97556.50
2022-12-22T04:22:58.864Z,97550.38
2022-12-22T04:25:25.800Z,97552.72
2022-12-22T04:27:52.314Z,97556.84
2022-12-22T04:30:18.942Z,97553.84
2022-12-22T04:32:45.479Z,97546.50
2022-12-22T04:35:11.994Z,97541.94
2022-12-22T04:37:38.568Z,97543.97
2022-12-22T04:40:05.406Z,97537.88
2022-12-22T04:42:31.909Z,97532.75
2022-12-22T04:44:58.464Z,97534.13
2022-12-22T04:47:24.963Z,97532.88
2022-12-22T04:49:51.459Z,97525.16
2022-12-22T04:52:18.055Z,97530.25
2022-12-22T04:54:44.576Z,97525.16
2022-12-22T04:57:11.289Z,97523.47
2022-12-22T04:59:37.884Z,97522.47
2022-12-22T05:02:04.504Z,97513.56
2022-12-22T05:04:31.198Z,97513.84
2022-12-22T05:06:57.729Z,97512.69
2022-12-22T05:09:24.511Z,97513.03
2022-12-22T05:11:51.038Z,97509.31
2022-12-22T05:14:17.608Z,97514.72
2022-12-22T05:16:44.223Z,97513.84
2022-12-22T05:19:10.800Z,97517.59
2022-12-22T05:21:37.325Z,97527.69
2022-12-22T05:24:03.945Z,97518.13
2022-12-22T05:26:30.498Z,97516.50
2022-12-22T05:28:57.053Z,97510.66
2022-12-22T05:31:24.187Z,97512.41
2022-12-22T05:33:50.866Z,97507.53
2022-12-22T05:36:17.570Z,97513.50
2022-12-22T05:38:46.785Z,97509.81
2022-12-22T05:41:13.655Z,97510.94
2022-12-22T05:43:40.184Z,97511.00
2022-12-22T05:46:07.824Z,97509.41
2022-12-22T05:48:38.654Z,97509.38
2022-12-22T05:51:06.620Z,97511.75
2022-12-22T05:53:33.154Z,97525.34
2022-12-22T05:55:59.700Z,97523.41
2022-12-22T05:58:26.238Z,97522.84
2022-12-22T06:00:55.663Z,97518.22
2022-12-22T06:03:22.322Z,97515.41
2022-12-22T06:05:52.137Z,97509.00
2022-12-22T06:08:18.801Z,97498.88
2022-12-22T06:10:45.295Z,97497.91
2022-12-22T06:13:11.817Z,97498.44
2022-12-22T06:15:38.434Z,97492.69
2022-12-22T06:18:04.996Z,97505.63
2022-12-22T06:20:31.530Z,97502.25
2022-12-22T06:22:58.091Z,97502.09
2022-12-22T06:25:24.619Z,97501.44
2022-12-22T06:27:51.136Z,97496.44
2022-12-22T06:30:17.697Z,97495.63
2022-12-22T06:32:44.502Z,97496.66
2022-12-22T06:35:11.297Z,97496.34
2022-12-22T06:37:37.864Z,97491.66
2022-12-22T06:40:04.746Z,97494.44
2022-12-22T06:42:50.101Z,97503.66
2022-12-22T06:45:16.664Z,97497.03
2022-12-22T06:47:43.325Z,97491.53
2022-12-22T06:50:10.120Z,97507.47
2022-12-22T06:52:36.642Z,97496.81
2022-12-22T06:55:03.299Z,97498.19
2022-12-22T06:57:29.817Z,97494.31
2022-12-22T07:00:06.488Z,97506.09
2022-12-22T07:02:33.182Z,97508.63
2022-12-22T07:04:59.854Z,97510.19
2022-12-22T07:07:26.448Z,97509.81
2022-12-22T07:09:52.968Z,97513.59
2022-12-22T07:12:19.593Z,97525.47
2022-12-22T07:14:46.125Z,97538.63
2022-12-22T07:17:12.735Z,97535.34
2022-12-22T07:19:39.241Z,97543.09
2022-12-22T07:22:05.799Z,97546.34
2022-12-22T07:24:32.346Z,97542.56
2022-12-22T07:26:58.986Z,97547.50
2022-12-22T07:29:25.583Z,97532.22
2022-12-22T07:31:52.357Z,97531.81
2022-12-22T07:34:19.008Z,97537.69
2022-12-22T07:36:45.492Z,97547.31
2022-12-22T07:39:12.464Z,97558.44
2022-12-22T07:41:57.502Z,97545.50
2022-12-22T07:44:24.464Z,97549.81
2022-12-22T07:46:51.046Z,97554.50
2022-12-22T07:49:36.405Z,97554.84
2022-12-22T07:52:02.986Z,97557.38
2022-12-22T07:54:29.623Z,97565.31
2022-12-22T07:56:56.306Z,97574.59
2022-12-22T07:59:23.028Z,97569.44
2022-12-22T08:01:49.772Z,97548.13
2022-12-22T08:04:16.440Z,97544.31
2022-12-22T08:06:43.014Z,97556.50
2022-12-22T08:09:19.669Z,97552.25
2022-12-22T08:11:46.329Z,97564.56
2022-12-22T08:14:12.877Z,97566.28
2022-12-22T08:16:39.500Z,97558.16
2022-12-22T08:19:06.086Z,97556.28
2022-12-22T08:21:32.621Z,97555.03
2022-12-22T08:23:59.184Z,97555.75
2022-12-22T08:26:27.693Z,97557.13
2022-12-22T08:28:59.470Z,97572.22
2022-12-22T08:31:26.541Z,97563.47
2022-12-22T08:33:53.335Z,97569.34
2022-12-22T08:36:19.865Z,97565.59
2022-12-22T08:38:46.393Z,97558.81
2022-12-22T08:41:13.062Z,97557.94
2022-12-22T08:43:39.633Z,97559.34
2022-12-22T08:46:06.160Z,97558.81
2022-12-22T08:48:32.720Z,97555.56
2022-12-22T08:50:59.246Z,97547.91
2022-12-22T08:54:02.470Z,97553.72
2022-12-22T08:56:12.316Z,97546.69
2022-12-22T08:58:40.256Z,97550.91
2022-12-22T09:01:06.975Z,97541.78
2022-12-22T09:03:33.601Z,97540.78
2022-12-22T09:06:01.129Z,97542.22
2022-12-22T09:08:27.655Z,97542.78
2022-12-22T09:10:54.313Z,97555.31
2022-12-22T09:13:20.967Z,97553.31
2022-12-22T09:15:47.570Z,97556.31
2022-12-22T09:18:17.132Z,97563.81
2022-12-22T09:20:43.760Z,97560.03
2022-12-22T09:23:10.332Z,97557.28
2022-12-22T09:25:37.080Z,97561.63
2022-12-22T09:28:06.853Z,97566.81
2022-12-22T09:30:33.391Z,97575.72
2022-12-22T09:33:00.014Z,97572.44
2022-12-22T09:35:26.553Z,97579.56
2022-12-22T09:37:55.639Z,97576.63
2022-12-22T09:40:22.345Z,97583.06
2022-12-22T09:42:48.910Z,97586.84
2022-12-22T09:45:20.125Z,97588.81
2022-12-22T09:47:53.888Z,97590.56
2022-12-22T09:50:25.222Z,97588.16
2022-12-22T09:52:56.238Z,97585.88
2022-12-22T09:55:25.852Z,97585.50
2022-12-22T09:57:55.590Z,97593.13
2022-12-22T10:00:23.959Z,97583.84
2022-12-22T10:03:01.886Z,97587.28
2022-12-22T10:05:38.570Z,97588.66
2022-12-22T10:08:09.957Z,97584.91
2022-12-22T10:10:36.495Z,97587.84
2022-12-22T10:13:03.884Z,97595.47
2022-12-22T10:15:40.393Z,97589.84
2022-12-22T10:18:17.039Z,97594.94
2022-12-22T10:20:45.794Z,97596.38
2022-12-22T10:23:17.715Z,97598.19
2022-12-22T10:28:48.035Z,97602.72
2022-12-22T10:31:24.753Z,97612.72
2022-12-22T10:33:53.084Z,97622.13
2022-12-22T10:36:27.049Z,97618.53
2022-12-22T10:39:07.395Z,97625.47
2022-12-22T10:41:40.793Z,97633.94
2022-12-22T10:44:12.006Z,97619.22
2022-12-22T10:46:39.863Z,97620.50
2022-12-22T10:49:11.041Z,97609.38
2022-12-22T10:51:37.685Z,97611.34
2022-12-22T10:54:04.287Z,97607.94
2022-12-22T10:56:31.796Z,97620.94
2022-12-22T10:59:01.456Z,97608.19
2022-12-22T11:01:32.033Z,97606.25
2022-12-22T11:03:59.249Z,97592.06
2022-12-22T11:06:25.778Z,97600.66
2022-12-22T11:08:52.419Z,97607.66
2022-12-22T11:11:38.031Z,97606.13
2022-12-22T11:14:23.273Z,97603.69
2022-12-22T11:16:56.060Z,97600.84
2022-12-22T11:19:25.790Z,97597.28
2022-12-22T11:22:04.531Z,97593.63
2022-12-22T11:24:31.070Z,97593.69
2022-12-22T11:27:16.550Z,97597.00
2022-12-22T11:29:43.149Z,97597.59
2022-12-22T11:32:09.762Z,97599.28
2022-12-22T11:35:08.438Z,97602.53
2022-12-22T11:37:35.037Z,97600.91
2022-12-22T11:40:13.068Z,97595.66
2022-12-22T11:42:51.912Z,97602.50
2022-12-22T11:45:18.442Z,97613.66
2022-12-22T11:47:54.932Z,97614.22
2022-12-22T11:50:58.272Z,97616.31
2022-12-22T11:53:24.920Z,97615.13
2022-12-22T11:55:54.577Z,97615.03
2022-12-22T11:58:25.469Z,97603.00
2022-12-22T12:01:16.207Z,97605.19
2022-12-22T12:03:48.992Z,97614.78
2022-12-22T12:06:26.686Z,97608.84
2022-12-22T12:09:12.705Z,97609.78
2022-12-22T12:11:41.268Z,97601.63
2022-12-22T12:14:11.008Z,97605.97
2022-12-22T12:16:44.496Z,97609.16
2022-12-22T12:19:51.309Z,97619.63
2022-12-22T12:22:26.867Z,97615.16
2022-12-22T12:25:01.480Z,97629.53
2022-12-22T12:27:40.030Z,97625.50
2022-12-22T12:30:36.858Z,97632.81
2022-12-22T12:33:08.410Z,97627.13
2022-12-22T12:35:36.525Z,97626.00
2022-12-22T12:38:06.194Z,97631.59
2022-12-22T12:40:38.387Z,97630.81
2022-12-22T12:43:04.954Z,97632.97
2022-12-22T12:45:36.620Z,97637.06
2022-12-22T12:48:26.395Z,97649.06
2022-12-22T12:50:56.140Z,97645.25
2022-12-22T12:53:23.220Z,97647.81
2022-12-22T12:55:49.668Z,97653.91
2022-12-22T12:58:34.661Z,97651.72
2022-12-22T13:01:02.171Z,97661.03
2022-12-22T13:04:02.021Z,97652.38
2022-12-22T13:06:34.014Z,97654.63
2022-12-22T13:09:39.800Z,97665.91
2022-12-22T13:12:11.671Z,97659.63
2022-12-22T13:14:58.143Z,97683.56
2022-12-22T13:17:33.611Z,97685.13
2022-12-22T13:20:00.559Z,97689.44
2022-12-22T13:22:27.443Z,97699.41
2022-12-22T13:24:54.272Z,97703.03
2022-12-22T13:27:22.555Z,97703.03
2022-12-22T13:29:49.238Z,97708.78
2022-12-22T13:32:17.511Z,97709.63
2022-12-22T13:35:29.067Z,97717.19
2022-12-22T13:37:42.247Z,97714.66
2022-12-22T13:40:08.933Z,97720.22
2022-12-22T13:42:39.835Z,97722.22
2022-12-22T13:45:07.649Z,97718.09
2022-12-22T13:47:34.196Z,97725.81
2022-12-22T13:50:09.602Z,97718.28
2022-12-22T13:52:36.675Z,97733.69
2022-12-22T13:55:03.211Z,97723.63
2022-12-22T13:57:29.700Z,97726.19
2022-12-22T13:59:56.264Z,97722.19
2022-12-22T14:02:23.103Z,97734.56
2022-12-22T14:05:09.194Z,97732.56
2022-12-22T14:07:36.041Z,97733.03
2022-12-22T14:10:02.615Z,97734.88
2022-12-22T14:12:32.783Z,97733.50
2022-12-22T14:15:01.347Z,97733.19
2022-12-22T14:17:29.087Z,97742.31
2022-12-22T14:20:02.104Z,97743.41
2022-12-22T14:22:28.883Z,97739.78
2022-12-22T14:25:02.494Z,97748.34
2022-12-22T14:27:33.014Z,97746.94
2022-12-22T14:30:00.344Z,97755.56
2022-12-22T14:32:40.961Z,97741.41
2022-12-22T14:35:15.458Z,97750.97
2022-12-22T14:37:42.139Z,97757.75
2022-12-22T14:40:15.030Z,97736.41
2022-12-22T14:42:44.752Z,97741.19
2022-12-22T14:45:14.956Z,97737.63
2022-12-22T14:47:41.464Z,97752.91
2022-12-22T14:50:16.540Z,97749.88
2022-12-22T14:52:46.063Z,97757.50
2022-12-22T14:55:31.832Z,97758.88
2022-12-22T14:57:59.633Z,97766.63
2022-12-22T15:00:52.890Z,97769.56
2022-12-22T15:03:26.646Z,97774.13
2022-12-22T15:05:53.383Z,97780.09
2022-12-22T15:08:39.078Z,97775.97
2022-12-22T15:11:11.375Z,97783.09
2022-12-22T15:13:38.127Z,97790.25
2022-12-22T15:16:04.762Z,97785.22
2022-12-22T15:18:31.355Z,97792.44
2022-12-22T15:20:57.982Z,97792.59
2022-12-22T15:23:24.510Z,97789.38
2022-12-22T15:25:51.261Z,97789.53
2022-12-22T15:28:17.863Z,97791.69
2022-12-22T15:30:56.035Z,97802.13
2022-12-22T15:33:22.737Z,97796.44
2022-12-22T15:35:50.222Z,97799.03
2022-12-22T15:38:17.927Z,97799.09
2022-12-22T15:40:44.501Z,97801.28
2022-12-22T15:43:28.855Z,97808.25
2022-12-22T15:45:58.258Z,97797.72
2022-12-22T15:48:35.036Z,97801.75
2022-12-22T15:51:02.406Z,97804.91
2022-12-22T15:53:29.055Z,97804.91
2022-12-22T15:55:55.830Z,97796.25
2022-12-22T15:58:23.059Z,97807.97
2022-12-22T16:00:49.716Z,97805.50
2022-12-22T16:03:16.453Z,97805.19
2022-12-22T16:05:43.195Z,97798.94
2022-12-22T16:08:17.646Z,97793.34
2022-12-22T16:10:44.790Z,97795.00
2022-12-22T16:13:12.125Z,97798.78
2022-12-22T16:15:38.861Z,97796.84
2022-12-22T16:18:05.832Z,97793.59
2022-12-22T16:20:37.809Z,97795.22
2022-12-22T16:23:05.089Z,97803.81
2022-12-22T16:25:34.173Z,97800.53
2022-12-22T16:28:03.926Z,97792.63
2022-12-22T16:30:31.177Z,97789.06
2022-12-22T16:32:57.786Z,97788.41
2022-12-22T16:35:25.380Z,97792.25
2022-12-22T16:37:51.940Z,97790.88
2022-12-22T16:40:18.774Z,97789.56
2022-12-22T16:45:28.890Z,97793.06
2022-12-22T16:47:55.638Z,97788.47
2022-12-22T16:50:22.861Z,97786.19
2022-12-22T16:52:49.798Z,97787.00
2022-12-22T16:55:16.995Z,97783.34
2022-12-22T16:57:43.915Z,97783.91
2022-12-22T17:00:18.213Z,97781.97
2022-12-22T17:02:46.130Z,97788.28
2022-12-22T17:05:44.441Z,97791.09
2022-12-22T17:08:16.112Z,97789.56
2022-12-22T17:10:42.670Z,97783.44
2022-12-22T17:13:09.283Z,97783.63
2022-12-22T17:15:35.843Z,97780.31
2022-12-22T17:18:03.634Z,97778.00
2022-12-22T17:20:30.275Z,97776.28
2022-12-22T17:22:58.744Z,97771.63
2022-12-22T17:25:29.197Z,97767.81
2022-12-22T17:27:55.747Z,97763.66
2022-12-22T17:30:23.265Z,97762.41
2022-12-22T17:32:50.044Z,97762.41
2022-12-22T17:35:17.199Z,97756.13
2022-12-22T17:37:44.602Z,97755.94
2022-12-22T17:40:32.014Z,97750.34
2022-12-22T17:42:58.913Z,97751.19
2022-12-22T17:45:25.659Z,97746.03
2022-12-22T17:47:52.357Z,97746.66
2022-12-22T17:50:19.889Z,97744.19
2022-12-22T17:52:46.781Z,97746.13
2022-12-22T17:56:05.961Z,97741.91
2022-12-22T17:58:13.820Z,97743.50
2022-12-22T18:00:40.356Z,97738.56
2022-12-22T18:03:07.054Z,97725.72
2022-12-22T18:05:37.094Z,97722.47
2022-12-22T18:08:03.627Z,97715.69
2022-12-22T18:10:31.610Z,97701.91
2022-12-22T18:12:59.430Z,97696.72
2022-12-22T18:15:26.423Z,97694.03
2022-12-22T18:17:53.048Z,97685.75
2022-12-22T18:20:20.644Z,97691.44
2022-12-22T18:22:47.221Z,97683.34
2022-12-22T18:25:17.975Z,97692.25
2022-12-22T18:27:44.574Z,97683.81
2022-12-22T18:30:17.427Z,97684.91
2022-12-22T18:32:44.034Z,97676.31
2022-12-22T18:35:10.554Z,97676.25
2022-12-22T18:37:37.290Z,97671.09
2022-12-22T18:40:03.961Z,97673.41
2022-12-22T18:42:30.518Z,97662.94
2022-12-22T18:44:57.042Z,97669.03
2022-12-22T18:47:23.741Z,97671.53
2022-12-22T18:49:50.379Z,97663.94
2022-12-22T18:52:20.682Z,97668.53
2022-12-22T18:54:47.378Z,97668.00
2022-12-22T18:57:14.682Z,97662.38
2022-12-22T18:59:41.215Z,97658.47
2022-12-22T19:02:26.849Z,97664.06
2022-12-22T19:04:53.682Z,97654.59
2022-12-22T19:07:21.377Z,97656.25
2022-12-22T19:09:47.955Z,97655.66
2022-12-22T19:12:15.289Z,97653.19
2022-12-22T19:14:44.790Z,97651.88
2022-12-22T19:17:19.501Z,97644.13
2022-12-22T19:19:46.045Z,97642.72
2022-12-22T19:22:13.669Z,97642.19
2022-12-22T19:24:41.516Z,97629.59
2022-12-22T19:27:15.259Z,97627.44
2022-12-22T19:29:42.052Z,97630.06
2022-12-22T19:32:12.540Z,97627.75
2022-12-22T19:34:39.368Z,97617.38
2022-12-22T19:37:05.942Z,97624.72
2022-12-22T19:39:32.477Z,97625.25
2022-12-22T19:41:59.195Z,97623.59
2022-12-22T19:44:26.521Z,97611.63
2022-12-22T19:46:53.478Z,97612.13
2022-12-22T19:49:20.854Z,97610.09
2022-12-22T19:51:47.696Z,97601.56
2022-12-22T19:54:14.366Z,97597.00
2022-12-22T19:56:41.364Z,97595.38
2022-12-22T19:59:10.973Z,97595.44
2022-12-22T20:01:37.673Z,97592.38
2022-12-22T20:04:04.275Z,97592.44
2022-12-22T20:06:30.869Z,97592.13
2022-12-22T20:09:01.723Z,97584.59
2022-12-22T20:11:28.270Z,97591.16
2022-12-22T20:13:54.822Z,97588.31
2022-12-22T20:16:21.428Z,97590.56
2022-12-22T20:18:48.000Z,97590.19
2022-12-22T20:21:23.652Z,97583.94
2022-12-22T20:23:50.608Z,97583.47
2022-12-22T20:26:21.549Z,97587.94
2022-12-22T20:28:49.868Z,97577.09
2022-12-22T20:31:17.061Z,97582.88
2022-12-22T20:33:44.011Z,97570.34
2022-12-22T20:36:26.666Z,97567.88
2022-12-22T20:38:53.831Z,97563.41
2022-12-22T20:41:21.074Z,97567.00
2022-12-22T20:43:47.704Z,97555.25
2022-12-22T20:46:24.679Z,97559.09
2022-12-22T20:48:56.119Z,97556.59
2022-12-22T20:51:23.620Z,97549.03
2022-12-22T20:53:50.666Z,97547.09
2022-12-22T20:56:17.113Z,97542.63
2022-12-22T20:58:43.649Z,97543.78
2022-12-22T21:01:10.200Z,97542.41
2022-12-22T21:03:36.776Z,97528.69
2022-12-22T21:06:06.907Z,97526.03
2022-12-22T21:08:33.399Z,97527.88
2022-12-22T21:11:00.827Z,97526.56
2022-12-22T21:13:27.400Z,97533.06
2022-12-22T21:15:54.037Z,97521.72
2022-12-22T21:18:23.848Z,97514.88
2022-12-22T21:20:50.668Z,97513.25
2022-12-22T21:23:17.222Z,97515.84
2022-12-22T21:25:46.644Z,97507.16
2022-12-22T21:28:16.520Z,97505.41
2022-12-22T21:30:43.105Z,97501.72
2022-12-22T21:33:09.827Z,97497.69
2022-12-22T21:35:36.554Z,97502.97
2022-12-22T21:38:03.043Z,97497.75
2022-12-22T21:40:30.568Z,97496.28
2022-12-22T21:42:58.186Z,97493.78
2022-12-22T21:45:26.254Z,97493.63
2022-12-22T21:47:52.841Z,97496.50
2022-12-22T21:50:26.544Z,97487.41
2022-12-22T21:52:53.140Z,97475.50
2022-12-22T21:55:21.527Z,97471.22
2022-12-22T21:57:48.167Z,97469.75
2022-12-22T22:00:15.591Z,97458.84
2022-12-22T22:02:42.301Z,97451.56
2022-12-22T22:05:14.261Z,97445.25
2022-12-22T22:07:41.120Z,97435.41
2022-12-22T22:10:08.144Z,97432.50
2022-12-22T22:12:37.978Z,97433.41
2022-12-22T22:15:05.153Z,97427.84
2022-12-22T22:17:31.710Z,97422.56
2022-12-22T22:20:01.187Z,97419.56
2022-12-22T22:22:48.258Z,97415.81
2022-12-22T22:25:15.606Z,97403.59
2022-12-22T22:27:47.501Z,97397.72
2022-12-22T22:30:17.916Z,97382.22
2022-12-22T22:32:44.464Z,97377.75
2022-12-22T22:35:11.136Z,97380.06
2022-12-22T22:37:38.753Z,97370.38
2022-12-22T22:40:06.539Z,97367.28
2022-12-22T22:42:33.041Z,97368.19
2022-12-22T22:44:59.631Z,97361.03
2022-12-22T22:47:26.505Z,97355.69
2022-12-22T22:49:53.185Z,97358.78
2022-12-22T22:52:19.677Z,97350.09
2022-12-22T22:54:46.206Z,97351.31
2022-12-22T22:57:13.814Z,97345.75
2022-12-22T22:59:40.314Z,97340.59
2022-12-22T23:02:06.975Z,97326.06
2022-12-22T23:04:33.561Z,97321.78
2022-12-22T23:07:00.586Z,97319.09
2022-12-22T23:09:27.162Z,97311.41
2022-12-22T23:11:53.998Z,97308.88
2022-12-22T23:14:21.338Z,97309.69
2022-12-22T23:16:48.246Z,97297.50
2022-12-22T23:19:14.894Z,97295.22
2022-12-22T23:21:41.432Z,97293.03
2022-12-22T23:24:08.053Z,97285.66
2022-12-22T23:26:34.568Z,97284.94
2022-12-22T23:29:03.560Z,97284.19
2022-12-22T23:31:30.842Z,97278.47
2022-12-22T23:33:57.493Z,97272.09
2022-12-22T23:36:24.017Z,97271.63
2022-12-22T23:38:51.819Z,97271.91
2022-12-22T23:41:18.387Z,97270.75
2022-12-22T23:43:44.900Z,97259.44
2022-12-22T23:46:12.627Z,97250.84
2022-12-22T23:48:42.053Z,97263.06
2022-12-22T23:51:09.077Z,97262.97
2022-12-22T23:53:35.836Z,97259.31
2022-12-22T23:56:02.686Z,97246.09
2022-12-22T23:58:29.214Z,97256.09
